Las Vegas, NM

1:57 AM MDT on March 29, 2015 (GMT -0600)
North 8th. Street Extension | | Change Station
CLOSE
Current Station
Personal Weather Station
Location: Las Vegas, NM
Elevation: 6526 ft
Nearby Weather Stations

Elev 6526 ft 35.61 °N, 105.23 °W | Updated 5 seconds ago

Clear
Clear
45.9 °F
Feels Like 46 °F
N
0.0
Wind Variable Wind from North
Gusts 1.6 mph

Today
High -- | Low -- °F
--% Chance of Precip.
Yesterday
High -- | Low -- °F
Precip. -- in
6:51 AM 7:19 PM
Waxing Gibbous, 69% visible
Pressure 29.88 in
Visibility 10.0 miles
Clouds Clear
Windchill 46 °F
Dew Point 15 °F
Humidity 29%
Rainfall 0.00 in
Snow Depth Not available.
UV 0.0 out of 12
Pollen 11.00 out of 12
Air Quality Not available.
Flu Activity Not available.
METAR KLVS 290753Z AUTO 26008KT 10SM CLR 12/M11 A3017 RMK AO2 SLP117 T01221106

More Conditions Fewer Conditions

Pressure 29.88 in
Visibility 10.0 miles
Clouds Clear
Windchill 46 °F
Dew Point 15 °F
Humidity 29%
Rainfall 0.00 in
Snow Depth Not available.
UV 0.0 out of 12
Pollen 11.00 out of 12
Air Quality Not available.
Flu Activity Not available.
METAR KLVS 290753Z AUTO 26008KT 10SM CLR 12/M11 A3017 RMK AO2 SLP117 T01221106

More Conditions Fewer Conditions

10-Day Weather Forecast

Almanac

Astronomy

Mar. 29, 2015 Rise Set
Actual Time
Civil Twilight
Nautical Twilight
Astronomical Twilight
Moon
Length of Visible Light
Length of Day
Tomorrow will be .
, % of the Moon is Illuminated

Today's Extremes

State Highs State Lows

Community

WunderPhotos

Upload Photos

1,809,187 photos uploaded!

WunderBlogs® & News

Nearby

Air Quality

  Air Quality AQ Index Pollutant
Not available.

Snow Depth

Station Depth Elevation

Earthquake Activity

City Distance Mag. Time & Date
Minimum magnitude displayed is 2.5.

Coastal Water Temperatures

Place Temperature

Stations

Nearby Weather Stations

Station Location Temp. Windchill Dew Point Humidity Wind Precip. Elev Updated Type